sensor_id;sensor_type;location;lat;lon;timestamp;P1;durP1;ratioP1;P2;durP2;ratioP2
7657;SDS011;8462;53.156;8.220;2023-05-07T00:00:36;17.17;;;8.53;;
7657;SDS011;8462;53.156;8.220;2023-05-07T00:03:03;18.83;;;11.87;;
7657;SDS011;8462;53.156;8.220;2023-05-07T00:05:30;16.47;;;9.20;;
7657;SDS011;8462;53.156;8.220;2023-05-07T00:07:57;16.40;;;10.57;;
7657;SDS011;8462;53.156;8.220;2023-05-07T00:10:24;18.37;;;11.33;;
7657;SDS011;8462;53.156;8.220;2023-05-07T00:12:51;18.13;;;10.80;;
7657;SDS011;8462;53.156;8.220;2023-05-07T00:15:18;15.83;;;10.97;;
7657;SDS011;8462;53.156;8.220;2023-05-07T00:17:46;15.30;;;9.63;;
7657;SDS011;8462;53.156;8.220;2023-05-07T00:20:13;20.10;;;11.73;;
7657;SDS011;8462;53.156;8.220;2023-05-07T00:22:40;18.27;;;10.63;;
7657;SDS011;8462;53.156;8.220;2023-05-07T00:25:07;9.93;;;5.80;;
7657;SDS011;8462;53.156;8.220;2023-05-07T00:27:35;12.00;;;8.17;;
7657;SDS011;8462;53.156;8.220;2023-05-07T00:30:02;14.97;;;8.67;;
7657;SDS011;8462;53.156;8.220;2023-05-07T00:32:29;19.17;;;9.90;;
7657;SDS011;8462;53.156;8.220;2023-05-07T00:34:57;13.63;;;9.17;;
7657;SDS011;8462;53.156;8.220;2023-05-07T00:37:24;16.27;;;10.07;;
7657;SDS011;8462;53.156;8.220;2023-05-07T00:39:51;19.67;;;11.57;;
7657;SDS011;8462;53.156;8.220;2023-05-07T00:42:18;18.47;;;11.73;;
7657;SDS011;8462;53.156;8.220;2023-05-07T00:44:46;18.43;;;10.33;;
7657;SDS011;8462;53.156;8.220;2023-05-07T00:47:13;18.47;;;11.20;;
7657;SDS011;8462;53.156;8.220;2023-05-07T00:49:41;15.30;;;9.27;;
7657;SDS011;8462;53.156;8.220;2023-05-07T00:52:11;20.47;;;11.50;;
7657;SDS011;8462;53.156;8.220;2023-05-07T00:54:40;14.43;;;9.87;;
7657;SDS011;8462;53.156;8.220;2023-05-07T00:57:07;12.90;;;8.83;;
7657;SDS011;8462;53.156;8.220;2023-05-07T00:59:36;16.50;;;11.73;;
7657;SDS011;8462;53.156;8.220;2023-05-07T01:02:03;18.93;;;10.90;;
7657;SDS011;8462;53.156;8.220;2023-05-07T01:04:30;11.97;;;8.53;;
7657;SDS011;8462;53.156;8.220;2023-05-07T01:06:57;15.27;;;8.97;;
7657;SDS011;8462;53.156;8.220;2023-05-07T01:09:26;20.03;;;9.90;;
7657;SDS011;8462;53.156;8.220;2023-05-07T01:11:55;20.53;;;12.87;;
7657;SDS011;8462;53.156;8.220;2023-05-07T01:14:23;19.40;;;11.53;;
7657;SDS011;8462;53.156;8.220;2023-05-07T01:16:50;16.03;;;10.60;;
7657;SDS011;8462;53.156;8.220;2023-05-07T01:19:21;20.50;;;12.03;;
7657;SDS011;8462;53.156;8.220;2023-05-07T01:21:48;19.90;;;12.23;;
7657;SDS011;8462;53.156;8.220;2023-05-07T01:24:19;17.73;;;11.27;;
7657;SDS011;8462;53.156;8.220;2023-05-07T01:26:47;17.83;;;10.10;;
7657;SDS011;8462;53.156;8.220;2023-05-07T01:29:15;19.00;;;10.97;;
7657;SDS011;8462;53.156;8.220;2023-05-07T01:31:43;20.50;;;13.13;;
7657;SDS011;8462;53.156;8.220;2023-05-07T01:34:11;13.93;;;9.87;;
7657;SDS011;8462;53.156;8.220;2023-05-07T01:36:39;14.07;;;8.53;;
7657;SDS011;8462;53.156;8.220;2023-05-07T01:39:09;14.63;;;9.77;;
7657;SDS011;8462;53.156;8.220;2023-05-07T01:41:37;15.97;;;9.50;;
7657;SDS011;8462;53.156;8.220;2023-05-07T01:44:05;19.80;;;11.73;;
7657;SDS011;8462;53.156;8.220;2023-05-07T01:46:32;13.93;;;10.10;;
7657;SDS011;8462;53.156;8.220;2023-05-07T01:49:00;16.70;;;10.17;;
7657;SDS011;8462;53.156;8.220;2023-05-07T01:51:27;9.93;;;6.90;;
7657;SDS011;8462;53.156;8.220;2023-05-07T01:53:54;18.17;;;11.23;;
7657;SDS011;8462;53.156;8.220;2023-05-07T01:56:21;15.67;;;8.70;;
7657;SDS011;8462;53.156;8.220;2023-05-07T01:58:50;12.17;;;8.00;;
7657;SDS011;8462;53.156;8.220;2023-05-07T02:01:17;15.87;;;10.43;;
7657;SDS011;8462;53.156;8.220;2023-05-07T02:03:44;18.37;;;11.17;;
7657;SDS011;8462;53.156;8.220;2023-05-07T02:08:52;14.87;;;10.10;;
7657;SDS011;8462;53.156;8.220;2023-05-07T02:11:19;14.87;;;10.77;;
7657;SDS011;8462;53.156;8.220;2023-05-07T02:13:46;16.93;;;11.00;;
7657;SDS011;8462;53.156;8.220;2023-05-07T02:16:14;10.43;;;7.20;;
7657;SDS011;8462;53.156;8.220;2023-05-07T02:18:41;11.73;;;8.43;;
7657;SDS011;8462;53.156;8.220;2023-05-07T02:21:08;14.33;;;9.60;;
7657;SDS011;8462;53.156;8.220;2023-05-07T02:23:34;16.53;;;10.30;;
7657;SDS011;8462;53.156;8.220;2023-05-07T02:26:03;21.23;;;12.00;;
7657;SDS011;8462;53.156;8.220;2023-05-07T02:28:31;12.37;;;7.30;;
7657;SDS011;8462;53.156;8.220;2023-05-07T02:31:02;17.33;;;10.90;;
7657;SDS011;8462;53.156;8.220;2023-05-07T02:33:30;17.87;;;11.80;;
7657;SDS011;8462;53.156;8.220;2023-05-07T02:36:05;9.00;;;6.97;;
7657;SDS011;8462;53.156;8.220;2023-05-07T02:38:35;15.43;;;9.60;;
7657;SDS011;8462;53.156;8.220;2023-05-07T02:41:02;17.17;;;11.63;;
7657;SDS011;8462;53.156;8.220;2023-05-07T02:43:29;19.63;;;11.67;;
7657;SDS011;8462;53.156;8.220;2023-05-07T02:46:00;19.33;;;11.77;;
7657;SDS011;8462;53.156;8.220;2023-05-07T02:48:28;18.77;;;12.13;;
7657;SDS011;8462;53.156;8.220;2023-05-07T02:50:56;10.20;;;7.03;;
7657;SDS011;8462;53.156;8.220;2023-05-07T02:53:23;18.43;;;12.10;;
7657;SDS011;8462;53.156;8.220;2023-05-07T02:55:51;18.40;;;11.20;;
7657;SDS011;8462;53.156;8.220;2023-05-07T02:58:19;14.00;;;9.50;;
7657;SDS011;8462;53.156;8.220;2023-05-07T03:00:46;17.17;;;12.37;;
7657;SDS011;8462;53.156;8.220;2023-05-07T03:03:21;15.90;;;10.37;;
7657;SDS011;8462;53.156;8.220;2023-05-07T03:05:48;18.80;;;10.83;;
7657;SDS011;8462;53.156;8.220;2023-05-07T03:08:17;16.17;;;10.87;;
7657;SDS011;8462;53.156;8.220;2023-05-07T03:10:44;14.37;;;8.90;;
7657;SDS011;8462;53.156;8.220;2023-05-07T03:13:11;15.40;;;10.97;;
7657;SDS011;8462;53.156;8.220;2023-05-07T03:15:38;19.83;;;11.83;;
7657;SDS011;8462;53.156;8.220;2023-05-07T03:18:06;16.60;;;10.13;;
7657;SDS011;8462;53.156;8.220;2023-05-07T03:20:33;18.20;;;11.17;;
7657;SDS011;8462;53.156;8.220;2023-05-07T03:23:01;17.20;;;10.43;;
7657;SDS011;8462;53.156;8.220;2023-05-07T03:25:29;17.87;;;12.13;;
7657;SDS011;8462;53.156;8.220;2023-05-07T03:27:56;18.57;;;10.80;;
7657;SDS011;8462;53.156;8.220;2023-05-07T03:30:30;16.67;;;11.67;;
7657;SDS011;8462;53.156;8.220;2023-05-07T03:32:56;16.40;;;10.60;;
7657;SDS011;8462;53.156;8.220;2023-05-07T03:35:23;16.43;;;11.10;;
7657;SDS011;8462;53.156;8.220;2023-05-07T03:37:50;14.47;;;8.20;;
7657;SDS011;8462;53.156;8.220;2023-05-07T03:40:18;16.90;;;9.73;;
7657;SDS011;8462;53.156;8.220;2023-05-07T03:42:50;14.23;;;7.50;;
7657;SDS011;8462;53.156;8.220;2023-05-07T03:45:20;16.97;;;10.60;;
7657;SDS011;8462;53.156;8.220;2023-05-07T03:47:56;19.77;;;10.03;;
7657;SDS011;8462;53.156;8.220;2023-05-07T03:50:23;14.63;;;8.87;;
7657;SDS011;8462;53.156;8.220;2023-05-07T03:52:49;17.27;;;10.80;;
7657;SDS011;8462;53.156;8.220;2023-05-07T03:55:19;12.93;;;7.27;;
7657;SDS011;8462;53.156;8.220;2023-05-07T03:57:53;13.00;;;6.87;;
7657;SDS011;8462;53.156;8.220;2023-05-07T04:00:20;16.07;;;9.33;;
7657;SDS011;8462;53.156;8.220;2023-05-07T04:02:47;11.00;;;6.40;;
7657;SDS011;8462;53.156;8.220;2023-05-07T04:05:18;13.57;;;7.53;;
7657;SDS011;8462;53.156;8.220;2023-05-07T04:07:48;14.60;;;6.87;;
7657;SDS011;8462;53.156;8.220;2023-05-07T04:10:20;11.07;;;7.07;;
7657;SDS011;8462;53.156;8.220;2023-05-07T04:12:50;14.53;;;8.90;;
7657;SDS011;8462;53.156;8.220;2023-05-07T04:15:22;15.33;;;9.43;;
7657;SDS011;8462;53.156;8.220;2023-05-07T04:17:49;12.77;;;7.00;;
7657;SDS011;8462;53.156;8.220;2023-05-07T04:20:18;11.47;;;6.50;;
7657;SDS011;8462;53.156;8.220;2023-05-07T04:22:51;15.23;;;7.83;;
7657;SDS011;8462;53.156;8.220;2023-05-07T04:25:17;14.13;;;8.10;;
7657;SDS011;8462;53.156;8.220;2023-05-07T04:27:45;14.53;;;9.57;;
7657;SDS011;8462;53.156;8.220;2023-05-07T04:30:13;17.17;;;9.50;;
7657;SDS011;8462;53.156;8.220;2023-05-07T04:32:41;14.53;;;8.83;;
7657;SDS011;8462;53.156;8.220;2023-05-07T04:35:09;13.30;;;9.13;;
7657;SDS011;8462;53.156;8.220;2023-05-07T04:37:37;10.97;;;7.27;;
7657;SDS011;8462;53.156;8.220;2023-05-07T04:40:06;13.63;;;8.40;;
7657;SDS011;8462;53.156;8.220;2023-05-07T04:42:33;8.57;;;5.53;;
7657;SDS011;8462;53.156;8.220;2023-05-07T04:45:01;11.83;;;7.57;;
7657;SDS011;8462;53.156;8.220;2023-05-07T04:47:32;14.77;;;8.53;;
7657;SDS011;8462;53.156;8.220;2023-05-07T04:50:02;12.90;;;8.20;;
7657;SDS011;8462;53.156;8.220;2023-05-07T04:52:29;13.70;;;8.03;;
7657;SDS011;8462;53.156;8.220;2023-05-07T04:54:58;15.60;;;8.67;;
7657;SDS011;8462;53.156;8.220;2023-05-07T04:57:27;12.53;;;8.03;;
7657;SDS011;8462;53.156;8.220;2023-05-07T04:59:54;20.37;;;8.43;;
7657;SDS011;8462;53.156;8.220;2023-05-07T05:02:21;14.27;;;8.83;;
7657;SDS011;8462;53.156;8.220;2023-05-07T05:04:48;12.47;;;7.33;;
7657;SDS011;8462;53.156;8.220;2023-05-07T05:07:16;12.77;;;7.63;;
7657;SDS011;8462;53.156;8.220;2023-05-07T05:09:44;11.00;;;6.70;;
7657;SDS011;8462;53.156;8.220;2023-05-07T05:12:11;12.80;;;6.93;;
7657;SDS011;8462;53.156;8.220;2023-05-07T05:14:38;13.77;;;7.97;;
7657;SDS011;8462;53.156;8.220;2023-05-07T05:17:06;13.07;;;7.60;;
7657;SDS011;8462;53.156;8.220;2023-05-07T05:19:35;10.93;;;7.93;;
7657;SDS011;8462;53.156;8.220;2023-05-07T05:22:02;10.67;;;6.70;;
7657;SDS011;8462;53.156;8.220;2023-05-07T05:24:30;11.40;;;7.23;;
7657;SDS011;8462;53.156;8.220;2023-05-07T05:26:58;13.23;;;9.20;;
7657;SDS011;8462;53.156;8.220;2023-05-07T05:29:30;16.23;;;8.83;;
7657;SDS011;8462;53.156;8.220;2023-05-07T05:31:57;15.87;;;7.97;;
7657;SDS011;8462;53.156;8.220;2023-05-07T05:34:25;15.43;;;9.03;;
7657;SDS011;8462;53.156;8.220;2023-05-07T05:36:53;13.57;;;8.43;;
7657;SDS011;8462;53.156;8.220;2023-05-07T05:39:20;11.83;;;6.40;;
7657;SDS011;8462;53.156;8.220;2023-05-07T05:41:49;11.47;;;7.13;;
7657;SDS011;8462;53.156;8.220;2023-05-07T05:44:17;16.37;;;10.13;;
7657;SDS011;8462;53.156;8.220;2023-05-07T05:46:43;14.47;;;8.70;;
7657;SDS011;8462;53.156;8.220;2023-05-07T05:49:10;15.37;;;8.93;;
7657;SDS011;8462;53.156;8.220;2023-05-07T05:51:38;14.40;;;9.87;;
7657;SDS011;8462;53.156;8.220;2023-05-07T05:54:05;12.13;;;7.77;;
7657;SDS011;8462;53.156;8.220;2023-05-07T05:56:32;14.70;;;7.80;;
7657;SDS011;8462;53.156;8.220;2023-05-07T05:59:01;15.20;;;9.87;;
7657;SDS011;8462;53.156;8.220;2023-05-07T06:01:28;13.97;;;8.57;;
7657;SDS011;8462;53.156;8.220;2023-05-07T06:03:57;15.13;;;9.23;;
7657;SDS011;8462;53.156;8.220;2023-05-07T06:06:24;13.70;;;9.00;;
7657;SDS011;8462;53.156;8.220;2023-05-07T06:08:55;12.43;;;7.67;;
7657;SDS011;8462;53.156;8.220;2023-05-07T06:11:28;7.03;;;5.67;;
7657;SDS011;8462;53.156;8.220;2023-05-07T06:13:55;12.30;;;6.80;;
7657;SDS011;8462;53.156;8.220;2023-05-07T06:16:24;15.07;;;8.93;;
7657;SDS011;8462;53.156;8.220;2023-05-07T06:18:52;16.73;;;8.60;;
7657;SDS011;8462;53.156;8.220;2023-05-07T06:21:18;14.27;;;8.13;;
7657;SDS011;8462;53.156;8.220;2023-05-07T06:23:46;11.30;;;5.23;;
7657;SDS011;8462;53.156;8.220;2023-05-07T06:26:13;10.33;;;7.43;;
7657;SDS011;8462;53.156;8.220;2023-05-07T06:28:44;7.97;;;5.47;;
7657;SDS011;8462;53.156;8.220;2023-05-07T06:31:13;15.60;;;7.93;;
7657;SDS011;8462;53.156;8.220;2023-05-07T06:33:45;9.70;;;5.97;;
7657;SDS011;8462;53.156;8.220;2023-05-07T06:36:13;8.97;;;5.50;;
7657;SDS011;8462;53.156;8.220;2023-05-07T06:38:40;9.97;;;6.43;;
7657;SDS011;8462;53.156;8.220;2023-05-07T06:41:07;13.10;;;8.50;;
7657;SDS011;8462;53.156;8.220;2023-05-07T06:43:39;12.00;;;7.30;;
7657;SDS011;8462;53.156;8.220;2023-05-07T06:46:24;10.90;;;6.70;;
7657;SDS011;8462;53.156;8.220;2023-05-07T06:48:53;10.40;;;6.23;;
7657;SDS011;8462;53.156;8.220;2023-05-07T06:51:20;13.57;;;8.87;;
7657;SDS011;8462;53.156;8.220;2023-05-07T06:53:46;15.57;;;8.47;;
7657;SDS011;8462;53.156;8.220;2023-05-07T06:56:14;11.43;;;6.90;;
7657;SDS011;8462;53.156;8.220;2023-05-07T06:58:41;11.00;;;6.63;;
7657;SDS011;8462;53.156;8.220;2023-05-07T07:01:08;10.90;;;7.33;;
7657;SDS011;8462;53.156;8.220;2023-05-07T07:03:36;12.33;;;7.23;;
7657;SDS011;8462;53.156;8.220;2023-05-07T07:06:05;12.47;;;6.97;;
7657;SDS011;8462;53.156;8.220;2023-05-07T07:08:33;10.37;;;6.83;;
7657;SDS011;8462;53.156;8.220;2023-05-07T07:11:00;9.67;;;5.67;;
7657;SDS011;8462;53.156;8.220;2023-05-07T07:13:28;11.33;;;8.00;;
7657;SDS011;8462;53.156;8.220;2023-05-07T07:15:55;9.97;;;7.33;;
7657;SDS011;8462;53.156;8.220;2023-05-07T07:18:22;12.50;;;6.97;;
7657;SDS011;8462;53.156;8.220;2023-05-07T07:20:52;10.43;;;7.47;;
7657;SDS011;8462;53.156;8.220;2023-05-07T07:23:20;7.67;;;6.27;;
7657;SDS011;8462;53.156;8.220;2023-05-07T07:25:47;11.83;;;7.40;;
7657;SDS011;8462;53.156;8.220;2023-05-07T07:28:14;8.57;;;5.97;;
7657;SDS011;8462;53.156;8.220;2023-05-07T07:30:42;9.70;;;6.27;;
7657;SDS011;8462;53.156;8.220;2023-05-07T07:33:10;7.17;;;5.80;;
7657;SDS011;8462;53.156;8.220;2023-05-07T07:35:37;8.60;;;6.97;;
7657;SDS011;8462;53.156;8.220;2023-05-07T07:38:05;7.70;;;5.70;;
7657;SDS011;8462;53.156;8.220;2023-05-07T07:40:35;8.50;;;5.90;;
7657;SDS011;8462;53.156;8.220;2023-05-07T07:43:03;8.43;;;6.33;;
7657;SDS011;8462;53.156;8.220;2023-05-07T07:45:31;7.60;;;5.57;;
7657;SDS011;8462;53.156;8.220;2023-05-07T07:47:59;8.33;;;6.13;;
7657;SDS011;8462;53.156;8.220;2023-05-07T07:50:26;8.00;;;6.30;;
7657;SDS011;8462;53.156;8.220;2023-05-07T07:52:53;7.50;;;5.97;;
7657;SDS011;8462;53.156;8.220;2023-05-07T07:55:20;16.13;;;7.83;;
7657;SDS011;8462;53.156;8.220;2023-05-07T07:57:52;9.10;;;6.50;;
7657;SDS011;8462;53.156;8.220;2023-05-07T08:00:20;10.07;;;7.40;;
7657;SDS011;8462;53.156;8.220;2023-05-07T08:02:51;7.73;;;5.37;;
7657;SDS011;8462;53.156;8.220;2023-05-07T08:05:24;9.63;;;6.37;;
7657;SDS011;8462;53.156;8.220;2023-05-07T08:07:51;9.47;;;6.50;;
7657;SDS011;8462;53.156;8.220;2023-05-07T08:10:23;5.60;;;4.33;;
7657;SDS011;8462;53.156;8.220;2023-05-07T08:12:57;5.73;;;4.80;;
7657;SDS011;8462;53.156;8.220;2023-05-07T08:15:24;6.97;;;5.70;;
7657;SDS011;8462;53.156;8.220;2023-05-07T08:17:51;7.83;;;5.87;;
7657;SDS011;8462;53.156;8.220;2023-05-07T08:20:19;7.50;;;4.80;;
7657;SDS011;8462;53.156;8.220;2023-05-07T08:22:46;5.90;;;4.83;;
7657;SDS011;8462;53.156;8.220;2023-05-07T08:25:12;8.47;;;5.90;;
7657;SDS011;8462;53.156;8.220;2023-05-07T08:27:39;7.63;;;4.93;;
7657;SDS011;8462;53.156;8.220;2023-05-07T08:30:09;6.67;;;5.17;;
7657;SDS011;8462;53.156;8.220;2023-05-07T08:32:36;7.87;;;5.80;;
7657;SDS011;8462;53.156;8.220;2023-05-07T08:35:03;9.17;;;7.03;;
7657;SDS011;8462;53.156;8.220;2023-05-07T08:37:31;8.07;;;6.33;;
7657;SDS011;8462;53.156;8.220;2023-05-07T08:39:58;8.73;;;7.60;;
7657;SDS011;8462;53.156;8.220;2023-05-07T08:42:30;7.13;;;5.30;;
7657;SDS011;8462;53.156;8.220;2023-05-07T08:45:00;9.10;;;6.60;;
7657;SDS011;8462;53.156;8.220;2023-05-07T08:47:38;7.77;;;5.80;;
7657;SDS011;8462;53.156;8.220;2023-05-07T08:50:10;6.60;;;4.80;;
7657;SDS011;8462;53.156;8.220;2023-05-07T08:52:38;7.20;;;5.63;;
7657;SDS011;8462;53.156;8.220;2023-05-07T08:55:07;9.10;;;6.87;;
7657;SDS011;8462;53.156;8.220;2023-05-07T08:57:35;7.60;;;5.37;;
7657;SDS011;8462;53.156;8.220;2023-05-07T09:00:04;11.13;;;7.07;;
7657;SDS011;8462;53.156;8.220;2023-05-07T09:02:36;7.83;;;6.03;;
7657;SDS011;8462;53.156;8.220;2023-05-07T09:05:04;8.27;;;7.30;;
7657;SDS011;8462;53.156;8.220;2023-05-07T09:07:32;8.67;;;7.37;;
7657;SDS011;8462;53.156;8.220;2023-05-07T09:10:01;9.23;;;7.17;;
7657;SDS011;8462;53.156;8.220;2023-05-07T09:12:29;10.30;;;7.50;;
7657;SDS011;8462;53.156;8.220;2023-05-07T09:14:57;7.63;;;6.07;;
7657;SDS011;8462;53.156;8.220;2023-05-07T09:17:26;8.27;;;5.90;;
7657;SDS011;8462;53.156;8.220;2023-05-07T09:19:55;9.77;;;7.07;;
7657;SDS011;8462;53.156;8.220;2023-05-07T09:22:22;7.77;;;6.00;;
7657;SDS011;8462;53.156;8.220;2023-05-07T09:24:57;8.17;;;6.43;;
7657;SDS011;8462;53.156;8.220;2023-05-07T09:27:26;8.67;;;6.80;;
7657;SDS011;8462;53.156;8.220;2023-05-07T09:29:55;6.70;;;6.00;;
7657;SDS011;8462;53.156;8.220;2023-05-07T09:32:21;9.77;;;6.93;;
7657;SDS011;8462;53.156;8.220;2023-05-07T09:34:48;9.53;;;6.90;;
7657;SDS011;8462;53.156;8.220;2023-05-07T09:37:19;8.63;;;6.33;;
7657;SDS011;8462;53.156;8.220;2023-05-07T09:39:48;6.00;;;5.40;;
7657;SDS011;8462;53.156;8.220;2023-05-07T09:42:22;6.40;;;4.97;;
7657;SDS011;8462;53.156;8.220;2023-05-07T09:44:51;7.20;;;6.07;;
7657;SDS011;8462;53.156;8.220;2023-05-07T09:47:23;5.57;;;4.80;;
7657;SDS011;8462;53.156;8.220;2023-05-07T09:49:54;6.57;;;4.73;;
7657;SDS011;8462;53.156;8.220;2023-05-07T09:52:25;6.10;;;5.07;;
7657;SDS011;8462;53.156;8.220;2023-05-07T09:54:59;7.00;;;5.00;;
7657;SDS011;8462;53.156;8.220;2023-05-07T09:57:30;6.60;;;5.57;;
7657;SDS011;8462;53.156;8.220;2023-05-07T10:00:03;8.40;;;6.27;;
7657;SDS011;8462;53.156;8.220;2023-05-07T10:02:46;5.73;;;4.30;;
7657;SDS011;8462;53.156;8.220;2023-05-07T10:05:17;8.60;;;6.10;;
7657;SDS011;8462;53.156;8.220;2023-05-07T10:07:47;5.97;;;5.37;;
7657;SDS011;8462;53.156;8.220;2023-05-07T10:10:15;6.53;;;5.00;;
7657;SDS011;8462;53.156;8.220;2023-05-07T10:12:45;5.97;;;4.70;;
7657;SDS011;8462;53.156;8.220;2023-05-07T10:15:22;6.50;;;5.73;;
7657;SDS011;8462;53.156;8.220;2023-05-07T10:17:53;7.00;;;5.60;;
7657;SDS011;8462;53.156;8.220;2023-05-07T10:20:22;6.27;;;4.70;;
7657;SDS011;8462;53.156;8.220;2023-05-07T10:22:51;8.27;;;5.80;;
7657;SDS011;8462;53.156;8.220;2023-05-07T10:25:28;5.03;;;4.53;;
7657;SDS011;8462;53.156;8.220;2023-05-07T10:28:01;6.70;;;5.60;;
7657;SDS011;8462;53.156;8.220;2023-05-07T10:30:34;6.27;;;5.50;;
7657;SDS011;8462;53.156;8.220;2023-05-07T10:33:14;8.57;;;6.40;;
7657;SDS011;8462;53.156;8.220;2023-05-07T10:35:45;6.47;;;5.70;;
7657;SDS011;8462;53.156;8.220;2023-05-07T10:38:16;6.27;;;5.50;;
7657;SDS011;8462;53.156;8.220;2023-05-07T10:40:46;6.40;;;5.50;;
7657;SDS011;8462;53.156;8.220;2023-05-07T10:43:13;5.33;;;4.80;;
7657;SDS011;8462;53.156;8.220;2023-05-07T10:51:41;4.87;;;4.37;;
7657;SDS011;8462;53.156;8.220;2023-05-07T10:54:19;6.70;;;4.83;;
7657;SDS011;8462;53.156;8.220;2023-05-07T11:03:11;7.00;;;5.07;;
7657;SDS011;8462;53.156;8.220;2023-05-07T11:06:09;6.70;;;5.50;;
7657;SDS011;8462;53.156;8.220;2023-05-07T11:08:52;5.37;;;4.73;;
7657;SDS011;8462;53.156;8.220;2023-05-07T11:14:30;6.57;;;5.17;;
7657;SDS011;8462;53.156;8.220;2023-05-07T11:17:17;7.97;;;4.93;;
7657;SDS011;8462;53.156;8.220;2023-05-07T11:19:51;7.13;;;6.33;;
7657;SDS011;8462;53.156;8.220;2023-05-07T11:22:37;6.00;;;5.00;;
7657;SDS011;8462;53.156;8.220;2023-05-07T11:25:14;7.23;;;5.77;;
7657;SDS011;8462;53.156;8.220;2023-05-07T11:27:49;5.93;;;5.20;;
7657;SDS011;8462;53.156;8.220;2023-05-07T11:30:16;7.10;;;6.27;;
7657;SDS011;8462;53.156;8.220;2023-05-07T11:32:46;6.10;;;5.33;;
7657;SDS011;8462;53.156;8.220;2023-05-07T11:35:16;8.07;;;6.63;;
7657;SDS011;8462;53.156;8.220;2023-05-07T11:37:45;8.80;;;7.20;;
7657;SDS011;8462;53.156;8.220;2023-05-07T11:40:13;7.80;;;6.40;;
7657;SDS011;8462;53.156;8.220;2023-05-07T11:42:40;8.43;;;6.33;;
7657;SDS011;8462;53.156;8.220;2023-05-07T11:45:09;7.53;;;6.13;;
7657;SDS011;8462;53.156;8.220;2023-05-07T11:47:36;7.13;;;5.97;;
7657;SDS011;8462;53.156;8.220;2023-05-07T11:50:07;6.70;;;6.00;;
7657;SDS011;8462;53.156;8.220;2023-05-07T11:52:35;5.80;;;5.20;;
7657;SDS011;8462;53.156;8.220;2023-05-07T11:55:04;8.10;;;7.17;;
7657;SDS011;8462;53.156;8.220;2023-05-07T11:57:32;9.17;;;7.70;;
7657;SDS011;8462;53.156;8.220;2023-05-07T12:00:00;7.13;;;5.43;;
7657;SDS011;8462;53.156;8.220;2023-05-07T12:02:39;7.53;;;6.03;;
7657;SDS011;8462;53.156;8.220;2023-05-07T12:05:07;8.30;;;7.07;;
7657;SDS011;8462;53.156;8.220;2023-05-07T12:07:34;6.90;;;6.20;;
7657;SDS011;8462;53.156;8.220;2023-05-07T12:10:04;8.83;;;6.47;;
7657;SDS011;8462;53.156;8.220;2023-05-07T12:12:31;6.87;;;6.00;;
7657;SDS011;8462;53.156;8.220;2023-05-07T12:15:05;7.60;;;6.00;;
7657;SDS011;8462;53.156;8.220;2023-05-07T12:17:32;7.57;;;5.93;;
7657;SDS011;8462;53.156;8.220;2023-05-07T12:20:00;7.10;;;6.20;;
7657;SDS011;8462;53.156;8.220;2023-05-07T12:22:28;7.33;;;6.47;;
7657;SDS011;8462;53.156;8.220;2023-05-07T12:24:56;8.27;;;6.70;;
7657;SDS011;8462;53.156;8.220;2023-05-07T12:27:24;6.80;;;5.77;;
7657;SDS011;8462;53.156;8.220;2023-05-07T12:29:51;8.13;;;6.43;;
7657;SDS011;8462;53.156;8.220;2023-05-07T12:32:19;7.63;;;5.97;;
7657;SDS011;8462;53.156;8.220;2023-05-07T12:34:46;8.67;;;6.03;;
7657;SDS011;8462;53.156;8.220;2023-05-07T12:37:23;6.03;;;5.37;;
7657;SDS011;8462;53.156;8.220;2023-05-07T12:40:03;7.83;;;6.30;;
7657;SDS011;8462;53.156;8.220;2023-05-07T12:42:32;6.37;;;5.77;;
7657;SDS011;8462;53.156;8.220;2023-05-07T12:45:07;7.80;;;5.90;;
7657;SDS011;8462;53.156;8.220;2023-05-07T12:47:35;7.23;;;5.10;;
7657;SDS011;8462;53.156;8.220;2023-05-07T12:50:04;10.03;;;6.93;;
7657;SDS011;8462;53.156;8.220;2023-05-07T12:52:33;7.00;;;5.30;;
7657;SDS011;8462;53.156;8.220;2023-05-07T12:55:04;5.10;;;3.63;;
7657;SDS011;8462;53.156;8.220;2023-05-07T12:57:31;7.60;;;6.13;;
7657;SDS011;8462;53.156;8.220;2023-05-07T13:00:05;8.17;;;6.50;;
7657;SDS011;8462;53.156;8.220;2023-05-07T13:02:33;8.97;;;6.53;;
7657;SDS011;8462;53.156;8.220;2023-05-07T13:05:00;7.77;;;5.97;;
7657;SDS011;8462;53.156;8.220;2023-05-07T13:07:27;6.97;;;5.53;;
7657;SDS011;8462;53.156;8.220;2023-05-07T13:09:55;7.17;;;5.67;;
7657;SDS011;8462;53.156;8.220;2023-05-07T13:12:22;7.07;;;6.00;;
7657;SDS011;8462;53.156;8.220;2023-05-07T13:14:49;8.87;;;6.47;;
7657;SDS011;8462;53.156;8.220;2023-05-07T13:17:16;6.50;;;5.83;;
7657;SDS011;8462;53.156;8.220;2023-05-07T13:19:43;8.70;;;6.40;;
7657;SDS011;8462;53.156;8.220;2023-05-07T13:22:10;7.47;;;6.07;;
7657;SDS011;8462;53.156;8.220;2023-05-07T13:24:37;6.77;;;6.03;;
7657;SDS011;8462;53.156;8.220;2023-05-07T13:27:08;5.77;;;5.00;;
7657;SDS011;8462;53.156;8.220;2023-05-07T13:29:34;7.07;;;5.70;;
7657;SDS011;8462;53.156;8.220;2023-05-07T13:32:01;6.20;;;5.37;;
7657;SDS011;8462;53.156;8.220;2023-05-07T13:34:28;7.53;;;5.73;;
7657;SDS011;8462;53.156;8.220;2023-05-07T13:36:55;6.87;;;5.20;;
7657;SDS011;8462;53.156;8.220;2023-05-07T13:39:22;7.47;;;5.63;;
7657;SDS011;8462;53.156;8.220;2023-05-07T13:41:49;5.70;;;5.20;;
7657;SDS011;8462;53.156;8.220;2023-05-07T13:44:17;6.70;;;6.00;;
7657;SDS011;8462;53.156;8.220;2023-05-07T13:46:44;3.63;;;3.17;;
7657;SDS011;8462;53.156;8.220;2023-05-07T13:49:11;6.63;;;5.00;;
7657;SDS011;8462;53.156;8.220;2023-05-07T13:51:38;8.57;;;5.03;;
7657;SDS011;8462;53.156;8.220;2023-05-07T13:54:05;5.33;;;4.30;;
7657;SDS011;8462;53.156;8.220;2023-05-07T13:56:32;6.57;;;4.83;;
7657;SDS011;8462;53.156;8.220;2023-05-07T13:58:59;5.50;;;4.93;;
7657;SDS011;8462;53.156;8.220;2023-05-07T14:01:27;6.53;;;5.07;;
7657;SDS011;8462;53.156;8.220;2023-05-07T14:03:55;6.37;;;5.53;;
7657;SDS011;8462;53.156;8.220;2023-05-07T14:06:22;7.07;;;5.50;;
7657;SDS011;8462;53.156;8.220;2023-05-07T14:08:49;6.57;;;5.17;;
7657;SDS011;8462;53.156;8.220;2023-05-07T14:11:16;5.37;;;4.87;;
7657;SDS011;8462;53.156;8.220;2023-05-07T14:13:43;5.07;;;4.27;;
7657;SDS011;8462;53.156;8.220;2023-05-07T14:16:11;6.03;;;5.43;;
7657;SDS011;8462;53.156;8.220;2023-05-07T14:18:39;5.57;;;4.90;;
7657;SDS011;8462;53.156;8.220;2023-05-07T14:21:06;6.23;;;4.73;;
7657;SDS011;8462;53.156;8.220;2023-05-07T14:23:34;4.93;;;4.43;;
7657;SDS011;8462;53.156;8.220;2023-05-07T14:26:01;5.53;;;4.67;;
7657;SDS011;8462;53.156;8.220;2023-05-07T14:28:28;5.70;;;5.10;;
7657;SDS011;8462;53.156;8.220;2023-05-07T14:30:55;5.10;;;4.57;;
7657;SDS011;8462;53.156;8.220;2023-05-07T14:33:22;4.90;;;4.40;;
7657;SDS011;8462;53.156;8.220;2023-05-07T14:35:50;5.23;;;4.23;;
7657;SDS011;8462;53.156;8.220;2023-05-07T14:38:17;5.97;;;4.93;;
7657;SDS011;8462;53.156;8.220;2023-05-07T14:40:45;5.67;;;5.10;;
7657;SDS011;8462;53.156;8.220;2023-05-07T14:43:12;6.80;;;4.70;;
7657;SDS011;8462;53.156;8.220;2023-05-07T14:45:39;5.30;;;4.80;;
7657;SDS011;8462;53.156;8.220;2023-05-07T14:48:05;4.50;;;4.07;;
7657;SDS011;8462;53.156;8.220;2023-05-07T14:50:34;4.40;;;4.00;;
7657;SDS011;8462;53.156;8.220;2023-05-07T14:53:02;5.33;;;4.77;;
7657;SDS011;8462;53.156;8.220;2023-05-07T14:55:29;6.40;;;4.90;;
7657;SDS011;8462;53.156;8.220;2023-05-07T14:57:56;4.83;;;4.30;;
7657;SDS011;8462;53.156;8.220;2023-05-07T15:00:23;4.87;;;4.27;;
7657;SDS011;8462;53.156;8.220;2023-05-07T15:02:50;5.00;;;4.40;;
7657;SDS011;8462;53.156;8.220;2023-05-07T15:05:17;6.07;;;4.70;;
7657;SDS011;8462;53.156;8.220;2023-05-07T15:07:44;4.87;;;4.37;;
7657;SDS011;8462;53.156;8.220;2023-05-07T15:10:13;4.97;;;4.40;;
7657;SDS011;8462;53.156;8.220;2023-05-07T15:12:40;6.67;;;4.43;;
7657;SDS011;8462;53.156;8.220;2023-05-07T15:15:07;4.83;;;4.40;;
7657;SDS011;8462;53.156;8.220;2023-05-07T15:17:35;4.83;;;4.10;;
7657;SDS011;8462;53.156;8.220;2023-05-07T15:20:02;4.30;;;3.90;;
7657;SDS011;8462;53.156;8.220;2023-05-07T15:22:29;4.93;;;4.30;;
7657;SDS011;8462;53.156;8.220;2023-05-07T15:24:56;4.83;;;4.17;;
7657;SDS011;8462;53.156;8.220;2023-05-07T15:27:25;5.40;;;4.53;;
7657;SDS011;8462;53.156;8.220;2023-05-07T15:29:52;5.33;;;4.83;;
7657;SDS011;8462;53.156;8.220;2023-05-07T15:32:18;4.90;;;4.30;;
7657;SDS011;8462;53.156;8.220;2023-05-07T15:34:45;5.73;;;4.53;;